sensor_id;sensor_type;location;lat;lon;timestamp;temperature;humidity
15274;DHT22;7738;49.532;11.156;2023-06-14T00:01:02;15.10;64.70
15274;DHT22;7738;49.532;11.156;2023-06-14T00:06:04;15.10;70.50
15274;DHT22;7738;49.532;11.156;2023-06-14T00:13:35;14.90;66.70
15274;DHT22;7738;49.532;11.156;2023-06-14T00:16:07;15.00;64.90
15274;DHT22;7738;49.532;11.156;2023-06-14T00:18:38;15.00;65.00
15274;DHT22;7738;49.532;11.156;2023-06-14T00:23:39;13.50;63.80
15274;DHT22;7738;49.532;11.156;2023-06-14T00:33:44;14.70;71.20
15274;DHT22;7738;49.532;11.156;2023-06-14T00:41:15;14.90;68.40
15274;DHT22;7738;49.532;11.156;2023-06-14T00:46:19;14.40;67.30
15274;DHT22;7738;49.532;11.156;2023-06-14T00:48:49;14.10;68.00
15274;DHT22;7738;49.532;11.156;2023-06-14T00:51:20;14.50;70.60
15274;DHT22;7738;49.532;11.156;2023-06-14T00:58:51;14.40;71.00
15274;DHT22;7738;49.532;11.156;2023-06-14T01:01:24;14.10;69.30
15274;DHT22;7738;49.532;11.156;2023-06-14T01:03:56;14.40;70.70
15274;DHT22;7738;49.532;11.156;2023-06-14T01:06:33;13.70;70.00
15274;DHT22;7738;49.532;11.156;2023-06-14T01:09:15;14.00;70.00
15274;DHT22;7738;49.532;11.156;2023-06-14T01:11:54;13.90;70.10
15274;DHT22;7738;49.532;11.156;2023-06-14T01:14:29;14.00;70.40
15274;DHT22;7738;49.532;11.156;2023-06-14T01:17:04;13.80;70.30
15274;DHT22;7738;49.532;11.156;2023-06-14T01:19:42;14.00;70.70
15274;DHT22;7738;49.532;11.156;2023-06-14T01:22:14;13.90;70.80
15274;DHT22;7738;49.532;11.156;2023-06-14T01:24:47;13.90;71.00
15274;DHT22;7738;49.532;11.156;2023-06-14T01:27:18;13.80;71.20
15274;DHT22;7738;49.532;11.156;2023-06-14T01:29:49;13.70;71.70
15274;DHT22;7738;49.532;11.156;2023-06-14T01:32:25;13.60;72.00
15274;DHT22;7738;49.532;11.156;2023-06-14T01:34:56;13.60;72.40
15274;DHT22;7738;49.532;11.156;2023-06-14T01:37:28;13.60;72.60
15274;DHT22;7738;49.532;11.156;2023-06-14T01:40:04;13.70;73.20
15274;DHT22;7738;49.532;11.156;2023-06-14T01:42:38;13.50;72.90
15274;DHT22;7738;49.532;11.156;2023-06-14T01:47:40;13.80;74.10
15274;DHT22;7738;49.532;11.156;2023-06-14T01:50:11;13.10;74.10
15274;DHT22;7738;49.532;11.156;2023-06-14T01:52:42;13.00;73.40
15274;DHT22;7738;49.532;11.156;2023-06-14T01:55:15;13.80;75.90
15274;DHT22;7738;49.532;11.156;2023-06-14T01:57:49;13.60;74.10
15274;DHT22;7738;49.532;11.156;2023-06-14T02:05:23;13.30;75.30
15274;DHT22;7738;49.532;11.156;2023-06-14T02:07:54;13.40;74.70
15274;DHT22;7738;49.532;11.156;2023-06-14T02:10:27;13.10;74.90
15274;DHT22;7738;49.532;11.156;2023-06-14T02:30:40;12.80;78.40
15274;DHT22;7738;49.532;11.156;2023-06-14T02:38:13;12.80;84.40
15274;DHT22;7738;49.532;11.156;2023-06-14T02:43:16;12.50;84.50
15274;DHT22;7738;49.532;11.156;2023-06-14T02:45:47;12.20;87.10
15274;DHT22;7738;49.532;11.156;2023-06-14T02:48:17;12.30;83.20
15274;DHT22;7738;49.532;11.156;2023-06-14T02:50:48;11.90;82.60
15274;DHT22;7738;49.532;11.156;2023-06-14T02:55:51;12.30;84.20
15274;DHT22;7738;49.532;11.156;2023-06-14T03:00:53;12.20;85.20
15274;DHT22;7738;49.532;11.156;2023-06-14T03:03:24;11.40;84.80
15274;DHT22;7738;49.532;11.156;2023-06-14T03:05:55;12.20;85.60
15274;DHT22;7738;49.532;11.156;2023-06-14T03:08:28;12.00;86.50
15274;DHT22;7738;49.532;11.156;2023-06-14T03:26:17;12.20;86.90
15274;DHT22;7738;49.532;11.156;2023-06-14T03:36:25;11.70;91.80
15274;DHT22;7738;49.532;11.156;2023-06-14T03:38:55;12.00;92.30
15274;DHT22;7738;49.532;11.156;2023-06-14T03:41:28;12.20;89.10
15274;DHT22;7738;49.532;11.156;2023-06-14T03:46:30;12.30;93.20
15274;DHT22;7738;49.532;11.156;2023-06-14T03:56:56;12.20;90.50
15274;DHT22;7738;49.532;11.156;2023-06-14T04:09:31;12.50;92.50
15274;DHT22;7738;49.532;11.156;2023-06-14T04:12:05;12.10;95.40
15274;DHT22;7738;49.532;11.156;2023-06-14T04:14:36;12.10;92.30
15274;DHT22;7738;49.532;11.156;2023-06-14T04:17:08;12.40;95.90
15274;DHT22;7738;49.532;11.156;2023-06-14T04:19:40;12.20;94.70
15274;DHT22;7738;49.532;11.156;2023-06-14T04:24:40;12.10;96.50
15274;DHT22;7738;49.532;11.156;2023-06-14T04:27:19;12.60;97.00
15274;DHT22;7738;49.532;11.156;2023-06-14T04:29:52;12.60;96.90
15274;DHT22;7738;49.532;11.156;2023-06-14T04:32:27;12.00;97.50
15274;DHT22;7738;49.532;11.156;2023-06-14T04:35:01;12.40;94.60
15274;DHT22;7738;49.532;11.156;2023-06-14T04:40:10;12.90;96.10
15274;DHT22;7738;49.532;11.156;2023-06-14T04:42:43;13.30;98.00
15274;DHT22;7738;49.532;11.156;2023-06-14T04:45:15;12.40;98.60
15274;DHT22;7738;49.532;11.156;2023-06-14T04:47:46;12.40;99.50
15274;DHT22;7738;49.532;11.156;2023-06-14T04:50:19;12.60;99.30
15274;DHT22;7738;49.532;11.156;2023-06-14T04:55:20;12.80;99.90
15274;DHT22;7738;49.532;11.156;2023-06-14T04:57:54;13.10;99.90
15274;DHT22;7738;49.532;11.156;2023-06-14T05:00:26;13.20;97.80
15274;DHT22;7738;49.532;11.156;2023-06-14T05:02:57;13.00;99.90
15274;DHT22;7738;49.532;11.156;2023-06-14T05:05:28;12.60;97.60
15274;DHT22;7738;49.532;11.156;2023-06-14T05:07:59;13.30;99.90
15274;DHT22;7738;49.532;11.156;2023-06-14T05:10:29;13.60;99.90
15274;DHT22;7738;49.532;11.156;2023-06-14T05:13:04;13.30;99.90
15274;DHT22;7738;49.532;11.156;2023-06-14T05:18:05;14.20;98.60
15274;DHT22;7738;49.532;11.156;2023-06-14T05:20:37;13.70;99.90
15274;DHT22;7738;49.532;11.156;2023-06-14T05:23:09;13.80;99.10
15274;DHT22;7738;49.532;11.156;2023-06-14T05:25:43;13.60;99.70
15274;DHT22;7738;49.532;11.156;2023-06-14T05:28:16;13.90;99.90
15274;DHT22;7738;49.532;11.156;2023-06-14T05:33:17;14.50;99.90
15274;DHT22;7738;49.532;11.156;2023-06-14T05:35:47;14.40;99.90
15274;DHT22;7738;49.532;11.156;2023-06-14T05:38:17;14.60;99.90
15274;DHT22;7738;49.532;11.156;2023-06-14T05:40:47;14.10;97.10
15274;DHT22;7738;49.532;11.156;2023-06-14T05:43:20;14.70;99.90
15274;DHT22;7738;49.532;11.156;2023-06-14T05:45:50;14.70;99.30
15274;DHT22;7738;49.532;11.156;2023-06-14T05:48:20;15.00;99.90
15274;DHT22;7738;49.532;11.156;2023-06-14T05:50:50;18.40;98.10
15274;DHT22;7738;49.532;11.156;2023-06-14T05:58:24;14.40;98.40
15274;DHT22;7738;49.532;11.156;2023-06-14T06:00:55;14.60;95.80
15274;DHT22;7738;49.532;11.156;2023-06-14T06:03:25;14.70;95.30
15274;DHT22;7738;49.532;11.156;2023-06-14T06:05:56;14.90;99.10
15274;DHT22;7738;49.532;11.156;2023-06-14T06:08:26;14.50;99.00
15274;DHT22;7738;49.532;11.156;2023-06-14T06:13:30;14.90;99.30
15274;DHT22;7738;49.532;11.156;2023-06-14T06:16:00;14.90;99.20
15274;DHT22;7738;49.532;11.156;2023-06-14T06:18:30;14.90;99.50
15274;DHT22;7738;49.532;11.156;2023-06-14T06:23:32;15.10;98.50
15274;DHT22;7738;49.532;11.156;2023-06-14T06:26:03;15.30;97.90
15274;DHT22;7738;49.532;11.156;2023-06-14T06:28:36;15.10;94.10
15274;DHT22;7738;49.532;11.156;2023-06-14T06:33:38;15.20;98.30
15274;DHT22;7738;49.532;11.156;2023-06-14T06:41:10;15.80;97.80
15274;DHT22;7738;49.532;11.156;2023-06-14T06:43:42;15.40;97.60
15274;DHT22;7738;49.532;11.156;2023-06-14T06:46:15;15.80;95.90
15274;DHT22;7738;49.532;11.156;2023-06-14T06:48:46;15.50;97.10
15274;DHT22;7738;49.532;11.156;2023-06-14T06:51:16;15.40;97.10
15274;DHT22;7738;49.532;11.156;2023-06-14T06:53:52;15.70;92.60
15274;DHT22;7738;49.532;11.156;2023-06-14T06:58:56;15.90;97.30
15274;DHT22;7738;49.532;11.156;2023-06-14T07:01:26;15.50;97.50
15274;DHT22;7738;49.532;11.156;2023-06-14T07:06:27;16.20;96.30
15274;DHT22;7738;49.532;11.156;2023-06-14T07:08:57;16.50;95.60
15274;DHT22;7738;49.532;11.156;2023-06-14T07:14:01;16.60;96.00
15274;DHT22;7738;49.532;11.156;2023-06-14T07:19:02;17.20;94.00
15274;DHT22;7738;49.532;11.156;2023-06-14T07:21:33;17.10;93.10
15274;DHT22;7738;49.532;11.156;2023-06-14T07:24:05;17.50;88.60
15274;DHT22;7738;49.532;11.156;2023-06-14T07:26:36;17.20;90.90
15274;DHT22;7738;49.532;11.156;2023-06-14T07:29:09;17.10;91.20
15274;DHT22;7738;49.532;11.156;2023-06-14T07:31:39;17.20;91.00
15274;DHT22;7738;49.532;11.156;2023-06-14T07:36:40;17.20;87.40
15274;DHT22;7738;49.532;11.156;2023-06-14T07:39:12;17.10;85.30
15274;DHT22;7738;49.532;11.156;2023-06-14T07:44:15;17.70;88.70
15274;DHT22;7738;49.532;11.156;2023-06-14T07:49:16;18.80;83.10
15274;DHT22;7738;49.532;11.156;2023-06-14T07:51:46;19.30;83.20
15274;DHT22;7738;49.532;11.156;2023-06-14T07:56:52;19.90;79.90
15274;DHT22;7738;49.532;11.156;2023-06-14T07:59:26;20.20;77.70
15274;DHT22;7738;49.532;11.156;2023-06-14T08:06:57;20.20;72.20
15274;DHT22;7738;49.532;11.156;2023-06-14T08:09:27;20.60;68.80
15274;DHT22;7738;49.532;11.156;2023-06-14T08:11:58;21.30;71.80
15274;DHT22;7738;49.532;11.156;2023-06-14T08:14:30;20.90;68.00
15274;DHT22;7738;49.532;11.156;2023-06-14T08:17:00;21.20;68.30
15274;DHT22;7738;49.532;11.156;2023-06-14T08:19:31;21.20;68.80
15274;DHT22;7738;49.532;11.156;2023-06-14T08:22:01;21.50;66.50
15274;DHT22;7738;49.532;11.156;2023-06-14T08:24:31;21.50;65.40
15274;DHT22;7738;49.532;11.156;2023-06-14T08:27:01;21.80;63.50
15274;DHT22;7738;49.532;11.156;2023-06-14T08:29:33;21.80;63.40
15274;DHT22;7738;49.532;11.156;2023-06-14T08:32:06;22.10;62.50
15274;DHT22;7738;49.532;11.156;2023-06-14T08:37:09;22.50;62.10
15274;DHT22;7738;49.532;11.156;2023-06-14T08:39:39;22.30;61.40
15274;DHT22;7738;49.532;11.156;2023-06-14T08:42:11;22.70;59.60
15274;DHT22;7738;49.532;11.156;2023-06-14T08:45:00;22.90;58.10
15274;DHT22;7738;49.532;11.156;2023-06-14T08:47:31;23.20;58.90
15274;DHT22;7738;49.532;11.156;2023-06-14T08:50:09;23.10;56.70
15274;DHT22;7738;49.532;11.156;2023-06-14T08:52:45;23.00;57.00
15274;DHT22;7738;49.532;11.156;2023-06-14T08:55:18;23.20;56.90
15274;DHT22;7738;49.532;11.156;2023-06-14T08:57:48;23.50;57.60
15274;DHT22;7738;49.532;11.156;2023-06-14T09:00:22;23.60;55.90
15274;DHT22;7738;49.532;11.156;2023-06-14T09:02:53;23.40;55.00
15274;DHT22;7738;49.532;11.156;2023-06-14T09:05:26;23.50;55.50
15274;DHT22;7738;49.532;11.156;2023-06-14T09:10:33;23.80;54.70
15274;DHT22;7738;49.532;11.156;2023-06-14T09:15:38;23.90;53.30
15274;DHT22;7738;49.532;11.156;2023-06-14T09:20:40;23.70;52.80
15274;DHT22;7738;49.532;11.156;2023-06-14T09:23:10;23.70;53.80
15274;DHT22;7738;49.532;11.156;2023-06-14T09:25:46;24.30;54.00
15274;DHT22;7738;49.532;11.156;2023-06-14T09:30:50;24.60;51.40
15274;DHT22;7738;49.532;11.156;2023-06-14T09:35:54;24.40;52.10
15274;DHT22;7738;49.532;11.156;2023-06-14T09:38:25;25.00;52.30
15274;DHT22;7738;49.532;11.156;2023-06-14T09:40:57;25.50;51.20
15274;DHT22;7738;49.532;11.156;2023-06-14T09:43:28;25.80;49.50
15274;DHT22;7738;49.532;11.156;2023-06-14T09:46:03;26.00;47.80
15274;DHT22;7738;49.532;11.156;2023-06-14T09:48:34;26.90;48.90
15274;DHT22;7738;49.532;11.156;2023-06-14T09:51:05;26.10;51.50
15274;DHT22;7738;49.532;11.156;2023-06-14T09:53:37;26.10;47.10
15274;DHT22;7738;49.532;11.156;2023-06-14T09:58:39;26.20;47.80
15274;DHT22;7738;49.532;11.156;2023-06-14T10:01:24;27.00;48.90
15274;DHT22;7738;49.532;11.156;2023-06-14T10:03:58;26.50;45.60
15274;DHT22;7738;49.532;11.156;2023-06-14T10:06:40;26.30;45.50
15274;DHT22;7738;49.532;11.156;2023-06-14T10:14:13;26.60;45.50
15274;DHT22;7738;49.532;11.156;2023-06-14T10:16:52;26.90;45.00
15274;DHT22;7738;49.532;11.156;2023-06-14T10:19:29;27.20;44.70
15274;DHT22;7738;49.532;11.156;2023-06-14T10:22:06;27.60;43.40
15274;DHT22;7738;49.532;11.156;2023-06-14T10:30:02;27.30;42.90
15274;DHT22;7738;49.532;11.156;2023-06-14T10:32:35;26.40;45.10
15274;DHT22;7738;49.532;11.156;2023-06-14T10:35:25;26.20;46.80
15274;DHT22;7738;49.532;11.156;2023-06-14T10:37:55;25.20;46.20
15274;DHT22;7738;49.532;11.156;2023-06-14T10:40:36;24.30;46.50
15274;DHT22;7738;49.532;11.156;2023-06-14T10:43:22;23.70;48.10
15274;DHT22;7738;49.532;11.156;2023-06-14T10:46:12;23.60;51.70
15274;DHT22;7738;49.532;11.156;2023-06-14T10:48:45;23.50;50.40
15274;DHT22;7738;49.532;11.156;2023-06-14T10:51:19;23.20;49.50
15274;DHT22;7738;49.532;11.156;2023-06-14T10:53:50;23.10;50.30
15274;DHT22;7738;49.532;11.156;2023-06-14T10:56:27;23.20;55.90
15274;DHT22;7738;49.532;11.156;2023-06-14T11:01:41;23.20;50.40
15274;DHT22;7738;49.532;11.156;2023-06-14T11:04:20;23.50;49.50
15274;DHT22;7738;49.532;11.156;2023-06-14T11:09:46;23.50;56.00
15274;DHT22;7738;49.532;11.156;2023-06-14T11:12:22;23.60;49.30
15274;DHT22;7738;49.532;11.156;2023-06-14T11:20:13;24.30;48.40
15274;DHT22;7738;49.532;11.156;2023-06-14T11:22:48;24.50;49.30
15274;DHT22;7738;49.532;11.156;2023-06-14T11:25:18;24.40;51.90
15274;DHT22;7738;49.532;11.156;2023-06-14T11:27:49;24.30;58.60
15274;DHT22;7738;49.532;11.156;2023-06-14T11:30:20;24.40;60.00
15274;DHT22;7738;49.532;11.156;2023-06-14T11:32:51;24.70;57.20
15274;DHT22;7738;49.532;11.156;2023-06-14T11:35:27;25.60;56.50
15274;DHT22;7738;49.532;11.156;2023-06-14T11:37:57;26.60;58.40
15274;DHT22;7738;49.532;11.156;2023-06-14T11:42:59;25.70;42.70
15274;DHT22;7738;49.532;11.156;2023-06-14T11:45:30;25.50;42.40
15274;DHT22;7738;49.532;11.156;2023-06-14T11:50:37;26.10;49.40
15274;DHT22;7738;49.532;11.156;2023-06-14T11:53:08;26.30;51.90
15274;DHT22;7738;49.532;11.156;2023-06-14T11:55:38;29.10;43.30
15274;DHT22;7738;49.532;11.156;2023-06-14T11:58:11;26.70;50.60
15274;DHT22;7738;49.532;11.156;2023-06-14T12:03:12;25.40;47.00
15274;DHT22;7738;49.532;11.156;2023-06-14T12:05:45;25.00;43.30
15274;DHT22;7738;49.532;11.156;2023-06-14T12:08:16;24.50;64.30
15274;DHT22;7738;49.532;11.156;2023-06-14T12:10:51;24.40;50.90
15274;DHT22;7738;49.532;11.156;2023-06-14T12:13:21;24.70;52.20
15274;DHT22;7738;49.532;11.156;2023-06-14T12:15:54;24.10;56.70
15274;DHT22;7738;49.532;11.156;2023-06-14T12:18:32;24.10;46.20
15274;DHT22;7738;49.532;11.156;2023-06-14T12:21:06;24.60;46.80
15274;DHT22;7738;49.532;11.156;2023-06-14T12:23:44;25.20;48.80
15274;DHT22;7738;49.532;11.156;2023-06-14T12:26:17;25.40;44.10
15274;DHT22;7738;49.532;11.156;2023-06-14T12:28:48;25.50;43.70
15274;DHT22;7738;49.532;11.156;2023-06-14T12:31:18;26.10;57.40
15274;DHT22;7738;49.532;11.156;2023-06-14T12:36:22;27.90;45.20
15274;DHT22;7738;49.532;11.156;2023-06-14T12:38:52;28.30;54.70
15274;DHT22;7738;49.532;11.156;2023-06-14T12:41:22;27.70;54.00
15274;DHT22;7738;49.532;11.156;2023-06-14T12:43:53;27.40;43.30
15274;DHT22;7738;49.532;11.156;2023-06-14T12:46:25;27.00;60.90
15274;DHT22;7738;49.532;11.156;2023-06-14T12:51:28;25.80;57.20
15274;DHT22;7738;49.532;11.156;2023-06-14T12:59:00;25.90;59.70
15274;DHT22;7738;49.532;11.156;2023-06-14T13:06:35;25.40;67.90
15274;DHT22;7738;49.532;11.156;2023-06-14T13:09:05;25.10;66.90
15274;DHT22;7738;49.532;11.156;2023-06-14T13:11:36;24.90;66.90
15274;DHT22;7738;49.532;11.156;2023-06-14T13:19:22;24.50;66.50
15274;DHT22;7738;49.532;11.156;2023-06-14T13:21:55;25.00;67.90
15274;DHT22;7738;49.532;11.156;2023-06-14T13:26:57;25.20;66.00
15274;DHT22;7738;49.532;11.156;2023-06-14T13:29:27;25.30;66.30
15274;DHT22;7738;49.532;11.156;2023-06-14T13:37:01;25.40;45.00
15274;DHT22;7738;49.532;11.156;2023-06-14T13:39:31;25.40;62.20
15274;DHT22;7738;49.532;11.156;2023-06-14T13:42:04;24.80;53.40
15274;DHT22;7738;49.532;11.156;2023-06-14T13:44:35;25.00;59.70
15274;DHT22;7738;49.532;11.156;2023-06-14T13:47:19;25.30;52.30
15274;DHT22;7738;49.532;11.156;2023-06-14T13:50:03;25.70;56.40
15274;DHT22;7738;49.532;11.156;2023-06-14T13:52:50;25.30;42.50
15274;DHT22;7738;49.532;11.156;2023-06-14T13:55:34;25.10;46.80
15274;DHT22;7738;49.532;11.156;2023-06-14T13:58:19;25.10;47.80
15274;DHT22;7738;49.532;11.156;2023-06-14T14:01:03;25.00;63.30
15274;DHT22;7738;49.532;11.156;2023-06-14T14:03:47;24.80;62.50
15274;DHT22;7738;49.532;11.156;2023-06-14T14:06:31;24.50;65.00
15274;DHT22;7738;49.532;11.156;2023-06-14T14:09:19;24.60;43.10
15274;DHT22;7738;49.532;11.156;2023-06-14T14:12:04;24.60;43.10
15274;DHT22;7738;49.532;11.156;2023-06-14T14:14:48;23.90;44.70
15274;DHT22;7738;49.532;11.156;2023-06-14T14:17:32;25.50;46.60
15274;DHT22;7738;49.532;11.156;2023-06-14T14:20:17;26.20;49.50
15274;DHT22;7738;49.532;11.156;2023-06-14T14:23:01;27.10;62.70
15274;DHT22;7738;49.532;11.156;2023-06-14T14:25:48;27.80;61.70
15274;DHT22;7738;49.532;11.156;2023-06-14T14:28:32;27.60;51.90
15274;DHT22;7738;49.532;11.156;2023-06-14T14:36:04;27.60;38.50
15274;DHT22;7738;49.532;11.156;2023-06-14T14:41:07;26.00;39.40
15274;DHT22;7738;49.532;11.156;2023-06-14T14:43:37;25.40;49.00
15274;DHT22;7738;49.532;11.156;2023-06-14T14:48:38;24.40;65.00
15274;DHT22;7738;49.532;11.156;2023-06-14T14:51:08;24.20;56.40
15274;DHT22;7738;49.532;11.156;2023-06-14T14:56:11;23.90;64.60
15274;DHT22;7738;49.532;11.156;2023-06-14T14:58:44;23.80;62.80
15274;DHT22;7738;49.532;11.156;2023-06-14T15:01:15;24.00;65.20
15274;DHT22;7738;49.532;11.156;2023-06-14T15:06:26;23.80;55.80
15274;DHT22;7738;49.532;11.156;2023-06-14T15:08:56;23.60;69.90
15274;DHT22;7738;49.532;11.156;2023-06-14T15:11:29;23.60;43.30
15274;DHT22;7738;49.532;11.156;2023-06-14T15:13:59;23.60;52.00
15274;DHT22;7738;49.532;11.156;2023-06-14T15:16:30;23.60;64.70
15274;DHT22;7738;49.532;11.156;2023-06-14T15:21:30;23.70;69.30
15274;DHT22;7738;49.532;11.156;2023-06-14T15:26:33;23.50;55.50
15274;DHT22;7738;49.532;11.156;2023-06-14T15:29:03;23.40;50.00
15274;DHT22;7738;49.532;11.156;2023-06-14T15:36:34;23.20;62.90
15274;DHT22;7738;49.532;11.156;2023-06-14T15:44:08;22.90;54.50
15274;DHT22;7738;49.532;11.156;2023-06-14T15:46:38;22.40;67.10
15274;DHT22;7738;49.532;11.156;2023-06-14T15:54:10;23.10;65.70
15274;DHT22;7738;49.532;11.156;2023-06-14T15:59:13;23.40;47.20
15274;DHT22;7738;49.532;11.156;2023-06-14T16:01:44;23.70;49.30
15274;DHT22;7738;49.532;11.156;2023-06-14T16:09:14;22.80;72.70
15274;DHT22;7738;49.532;11.156;2023-06-14T16:11:48;23.20;47.20
15274;DHT22;7738;49.532;11.156;2023-06-14T16:14:18;23.20;47.40
15274;DHT22;7738;49.532;11.156;2023-06-14T16:24:20;23.40;52.80
15274;DHT22;7738;49.532;11.156;2023-06-14T16:26:53;23.40;56.60
15274;DHT22;7738;49.532;11.156;2023-06-14T16:31:53;23.00;58.90
15274;DHT22;7738;49.532;11.156;2023-06-14T16:36:54;23.30;54.20
15274;DHT22;7738;49.532;11.156;2023-06-14T16:39:24;22.70;57.20
15274;DHT22;7738;49.532;11.156;2023-06-14T16:41:57;23.20;47.20
15274;DHT22;7738;49.532;11.156;2023-06-14T16:44:27;23.00;53.00
15274;DHT22;7738;49.532;11.156;2023-06-14T16:49:29;22.90;74.00
15274;DHT22;7738;49.532;11.156;2023-06-14T16:51:59;23.00;74.40
15274;DHT22;7738;49.532;11.156;2023-06-14T16:54:29;23.20;76.00
15274;DHT22;7738;49.532;11.156;2023-06-14T17:02:04;22.90;46.70
15274;DHT22;7738;49.532;11.156;2023-06-14T17:04:35;22.80;74.80
15274;DHT22;7738;49.532;11.156;2023-06-14T17:17:11;21.20;68.90
15274;DHT22;7738;49.532;11.156;2023-06-14T18:17:51;20.40;52.90
15274;DHT22;7738;49.532;11.156;2023-06-14T19:18:28;19.00;57.80
15274;DHT22;7738;49.532;11.156;2023-06-14T19:41:07;18.80;72.30
15274;DHT22;7738;49.532;11.156;2023-06-14T19:48:44;17.70;59.30
15274;DHT22;7738;49.532;11.156;2023-06-14T19:56:17;17.40;60.00
15274;DHT22;7738;49.532;11.156;2023-06-14T19:58:50;17.20;60.80
15274;DHT22;7738;49.532;11.156;2023-06-14T20:01:20;16.80;60.20
15274;DHT22;7738;49.532;11.156;2023-06-14T20:03:50;17.20;62.70
15274;DHT22;7738;49.532;11.156;2023-06-14T20:06:20;17.10;60.50
15274;DHT22;7738;49.532;11.156;2023-06-14T20:13:55;17.00;60.90
15274;DHT22;7738;49.532;11.156;2023-06-14T20:16:27;16.90;61.40
15274;DHT22;7738;49.532;11.156;2023-06-14T20:18:57;16.90;61.50
15274;DHT22;7738;49.532;11.156;2023-06-14T20:21:27;16.70;63.70
15274;DHT22;7738;49.532;11.156;2023-06-14T20:26:28;16.90;64.00
15274;DHT22;7738;49.532;11.156;2023-06-14T20:29:01;16.10;63.20
15274;DHT22;7738;49.532;11.156;2023-06-14T20:31:31;16.40;62.80
15274;DHT22;7738;49.532;11.156;2023-06-14T20:34:01;16.70;64.00
15274;DHT22;7738;49.532;11.156;2023-06-14T20:39:03;16.50;63.30
15274;DHT22;7738;49.532;11.156;2023-06-14T20:41:33;16.70;64.00
15274;DHT22;7738;49.532;11.156;2023-06-14T20:44:06;16.60;65.60
15274;DHT22;7738;49.532;11.156;2023-06-14T20:46:38;16.70;66.20
15274;DHT22;7738;49.532;11.156;2023-06-14T20:49:12;16.10;65.20
15274;DHT22;7738;49.532;11.156;2023-06-14T20:54:13;16.40;65.30
15274;DHT22;7738;49.532;11.156;2023-06-14T20:56:44;16.40;67.10
15274;DHT22;7738;49.532;11.156;2023-06-14T20:59:16;16.30;67.00
15274;DHT22;7738;49.532;11.156;2023-06-14T21:01:46;16.30;67.50
15274;DHT22;7738;49.532;11.156;2023-06-14T21:04:16;16.10;66.80
15274;DHT22;7738;49.532;11.156;2023-06-14T21:06:48;16.00;66.40
15274;DHT22;7738;49.532;11.156;2023-06-14T21:09:18;15.90;66.60
15274;DHT22;7738;49.532;11.156;2023-06-14T21:11:48;15.70;66.50
15274;DHT22;7738;49.532;11.156;2023-06-14T21:14:21;16.00;67.30
15274;DHT22;7738;49.532;11.156;2023-06-14T21:16:51;15.90;67.50
15274;DHT22;7738;49.532;11.156;2023-06-14T21:21:52;15.70;67.70
15274;DHT22;7738;49.532;11.156;2023-06-14T21:24:22;15.70;68.10
15274;DHT22;7738;49.532;11.156;2023-06-14T21:26:53;15.90;68.40
15274;DHT22;7738;49.532;11.156;2023-06-14T21:29:25;15.40;68.10
15274;DHT22;7738;49.532;11.156;2023-06-14T21:31:55;15.60;68.60
15274;DHT22;7738;49.532;11.156;2023-06-14T21:34:26;15.60;68.80
15274;DHT22;7738;49.532;11.156;2023-06-14T21:36:56;15.50;68.90
15274;DHT22;7738;49.532;11.156;2023-06-14T21:39:26;15.50;69.10
15274;DHT22;7738;49.532;11.156;2023-06-14T21:41:56;15.40;69.30
15274;DHT22;7738;49.532;11.156;2023-06-14T21:44:29;15.50;69.50
15274;DHT22;7738;49.532;11.156;2023-06-14T21:46:59;15.40;69.80
15274;DHT22;7738;49.532;11.156;2023-06-14T21:49:30;15.30;69.80
15274;DHT22;7738;49.532;11.156;2023-06-14T21:52:00;15.20;70.00
15274;DHT22;7738;49.532;11.156;2023-06-14T21:54:30;15.30;70.30
15274;DHT22;7738;49.532;11.156;2023-06-14T21:57:01;15.20;70.30
15274;DHT22;7738;49.532;11.156;2023-06-14T21:59:33;15.30;70.50
15274;DHT22;7738;49.532;11.156;2023-06-14T22:02:04;15.30;70.60
15274;DHT22;7738;49.532;11.156;2023-06-14T22:04:34;15.30;70.60
15274;DHT22;7738;49.532;11.156;2023-06-14T22:07:05;15.10;70.50
15274;DHT22;7738;49.532;11.156;2023-06-14T22:09:38;15.30;71.20
15274;DHT22;7738;49.532;11.156;2023-06-14T22:12:10;15.20;71.20
15274;DHT22;7738;49.532;11.156;2023-06-14T22:14:45;15.00;71.00
15274;DHT22;7738;49.532;11.156;2023-06-14T22:17:15;15.20;71.60
15274;DHT22;7738;49.532;11.156;2023-06-14T22:22:20;14.90;72.10
15274;DHT22;7738;49.532;11.156;2023-06-14T22:24:52;14.80;72.20
15274;DHT22;7738;49.532;11.156;2023-06-14T22:27:23;14.70;72.50
15274;DHT22;7738;49.532;11.156;2023-06-14T22:29:57;14.60;72.70
15274;DHT22;7738;49.532;11.156;2023-06-14T22:35:01;14.70;73.80
15274;DHT22;7738;49.532;11.156;2023-06-14T22:37:32;17.30;76.50
15274;DHT22;7738;49.532;11.156;2023-06-14T22:40:07;14.30;73.80
15274;DHT22;7738;49.532;11.156;2023-06-14T22:42:40;14.60;74.30
15274;DHT22;7738;49.532;11.156;2023-06-14T22:45:16;14.80;74.70
15274;DHT22;7738;49.532;11.156;2023-06-14T22:47:55;14.40;74.40
15274;DHT22;7738;49.532;11.156;2023-06-14T22:50:26;14.20;74.60
15274;DHT22;7738;49.532;11.156;2023-06-14T22:52:56;14.40;74.70
15274;DHT22;7738;49.532;11.156;2023-06-14T22:55:31;14.60;75.20
15274;DHT22;7738;49.532;11.156;2023-06-14T22:58:01;14.20;75.20
15274;DHT22;7738;49.532;11.156;2023-06-14T23:00:34;14.40;75.60
15274;DHT22;7738;49.532;11.156;2023-06-14T23:05:35;14.50;76.30
15274;DHT22;7738;49.532;11.156;2023-06-14T23:08:05;14.40;76.50
15274;DHT22;7738;49.532;11.156;2023-06-14T23:10:35;14.40;76.90
15274;DHT22;7738;49.532;11.156;2023-06-14T23:13:07;14.50;77.40
15274;DHT22;7738;49.532;11.156;2023-06-14T23:15:40;14.00;76.60
15274;DHT22;7738;49.532;11.156;2023-06-14T23:18:11;14.50;78.30
15274;DHT22;7738;49.532;11.156;2023-06-14T23:20:42;14.30;81.30
15274;DHT22;7738;49.532;11.156;2023-06-14T23:23:12;14.00;82.10
15274;DHT22;7738;49.532;11.156;2023-06-14T23:25:42;13.80;83.70
15274;DHT22;7738;49.532;11.156;2023-06-14T23:28:12;14.40;81.70
15274;DHT22;7738;49.532;11.156;2023-06-14T23:30:46;13.90;82.80
15274;DHT22;7738;49.532;11.156;2023-06-14T23:33:18;13.80;85.10
15274;DHT22;7738;49.532;11.156;2023-06-14T23:35:54;13.30;85.00
15274;DHT22;7738;49.532;11.156;2023-06-14T23:40:56;14.00;88.20
15274;DHT22;7738;49.532;11.156;2023-06-14T23:43:29;13.00;84.80
15274;DHT22;7738;49.532;11.156;2023-06-14T23:46:03;13.50;80.90
15274;DHT22;7738;49.532;11.156;2023-06-14T23:48:33;13.40;81.50
15274;DHT22;7738;49.532;11.156;2023-06-14T23:51:03;13.20;81.80
15274;DHT22;7738;49.532;11.156;2023-06-14T23:53:33;13.50;82.20
15274;DHT22;7738;49.532;11.156;2023-06-14T23:56:05;13.20;82.20
